createdAt,value
2023-03-19T00:01:13.186Z,48.20
2023-03-19T00:03:42.698Z,48.40
2023-03-19T00:06:09.666Z,48.30
2023-03-19T00:08:38.859Z,48.50
2023-03-19T00:11:08.523Z,48.40
2023-03-19T00:13:38.554Z,48.50
2023-03-19T00:16:08.244Z,48.40
2023-03-19T00:18:35.257Z,48.50
2023-03-19T00:21:05.745Z,48.60
2023-03-19T00:23:32.897Z,48.70
2023-03-19T00:26:05.601Z,48.80
2023-03-19T00:28:32.883Z,48.90
2023-03-19T00:31:09.701Z,48.90
2023-03-19T00:33:37.165Z,49.10
2023-03-19T00:36:10.904Z,49.00
2023-03-19T00:38:38.726Z,49.20
2023-03-19T00:41:08.804Z,49.30
2023-03-19T00:43:36.462Z,49.30
2023-03-19T00:46:04.343Z,49.30
2023-03-19T00:48:33.334Z,49.30
2023-03-19T00:51:09.133Z,49.40
2023-03-19T00:53:43.664Z,49.60
2023-03-19T00:56:13.295Z,49.60
2023-03-19T00:58:45.351Z,49.60
2023-03-19T01:01:25.163Z,49.80
2023-03-19T01:03:54.154Z,50.10
2023-03-19T01:06:21.054Z,50.00
2023-03-19T01:08:47.867Z,50.10
2023-03-19T01:11:17.223Z,50.10
2023-03-19T01:13:44.495Z,50.10
2023-03-19T01:16:11.513Z,50.00
2023-03-19T01:18:41.078Z,49.90
2023-03-19T01:21:08.421Z,50.00
2023-03-19T01:23:37.844Z,50.10
2023-03-19T01:26:05.337Z,50.30
2023-03-19T01:28:32.286Z,50.30
2023-03-19T01:31:01.891Z,50.30
2023-03-19T01:33:31.466Z,50.30
2023-03-19T01:35:59.453Z,50.30
2023-03-19T01:38:26.357Z,50.40
2023-03-19T01:40:55.460Z,50.50
2023-03-19T01:43:29.040Z,50.60
2023-03-19T01:46:13.227Z,50.70
2023-03-19T01:48:45.238Z,50.70
2023-03-19T01:51:17.526Z,50.60
2023-03-19T01:53:52.704Z,50.70
2023-03-19T01:56:41.488Z,50.70
2023-03-19T01:59:21.325Z,51.00
2023-03-19T02:01:59.622Z,50.80
2023-03-19T02:04:31.923Z,50.80
2023-03-19T02:07:01.223Z,50.80
2023-03-19T02:09:31.928Z,50.80
2023-03-19T02:12:03.142Z,50.80
2023-03-19T02:14:32.566Z,50.80
2023-03-19T02:17:02.534Z,50.80
2023-03-19T02:19:48.595Z,50.80
2023-03-19T02:22:22.699Z,51.10
2023-03-19T02:25:22.238Z,51.10
2023-03-19T02:27:49.232Z,51.40
2023-03-19T02:30:25.687Z,51.10
2023-03-19T02:32:57.215Z,51.40
2023-03-19T02:35:27.128Z,51.30
2023-03-19T02:37:56.302Z,51.50
2023-03-19T02:40:31.916Z,51.30
2023-03-19T02:42:58.974Z,51.40
2023-03-19T02:45:32.296Z,51.40
2023-03-19T02:48:01.559Z,51.60
2023-03-19T02:50:28.509Z,51.60
2023-03-19T02:52:58.404Z,51.60
2023-03-19T02:55:28.530Z,51.60
2023-03-19T02:57:55.448Z,51.70
2023-03-19T03:00:22.413Z,51.70
2023-03-19T03:02:51.576Z,51.70
2023-03-19T03:05:21.544Z,51.80
2023-03-19T03:07:53.982Z,51.90
2023-03-19T03:10:20.944Z,52.00
2023-03-19T03:12:47.870Z,52.00
2023-03-19T03:15:15.007Z,52.00
2023-03-19T03:17:45.840Z,52.10
2023-03-19T03:20:17.713Z,52.10
2023-03-19T03:22:47.198Z,52.10
2023-03-19T03:25:19.151Z,52.10
2023-03-19T03:27:48.762Z,52.30
2023-03-19T03:30:18.991Z,52.30
2023-03-19T03:32:48.310Z,52.30
2023-03-19T03:35:21.868Z,52.30
2023-03-19T03:37:52.197Z,52.30
2023-03-19T03:40:22.043Z,52.30
2023-03-19T03:42:51.474Z,52.20
2023-03-19T03:45:18.945Z,52.30
2023-03-19T03:47:46.198Z,52.30
2023-03-19T03:50:13.836Z,52.30
2023-03-19T03:52:47.923Z,52.30
2023-03-19T03:55:14.956Z,52.30
2023-03-19T03:57:41.842Z,52.40
2023-03-19T04:00:09.888Z,52.50
2023-03-19T04:02:36.832Z,52.50
2023-03-19T04:05:09.223Z,52.60
2023-03-19T04:07:38.506Z,52.80
2023-03-19T04:10:07.612Z,52.80
2023-03-19T04:12:37.979Z,52.70
2023-03-19T04:15:07.726Z,52.80
2023-03-19T04:17:37.166Z,52.90
2023-03-19T04:20:05.617Z,53.10
2023-03-19T04:22:33.468Z,53.20
2023-03-19T04:25:02.721Z,53.30
2023-03-19T04:27:29.582Z,53.40
2023-03-19T04:29:59.013Z,53.40
2023-03-19T04:32:26.000Z,53.50
2023-03-19T04:34:56.194Z,53.40
2023-03-19T04:37:25.202Z,53.40
2023-03-19T04:39:52.075Z,53.50
2023-03-19T04:42:21.495Z,53.50
2023-03-19T04:44:48.677Z,53.50
2023-03-19T04:47:15.623Z,53.60
2023-03-19T04:49:42.484Z,53.70
2023-03-19T04:52:09.463Z,53.80
2023-03-19T04:54:38.697Z,53.80
2023-03-19T04:57:05.762Z,53.90
2023-03-19T04:59:32.682Z,53.90
2023-03-19T05:01:59.609Z,53.90
2023-03-19T05:04:28.622Z,54.00
2023-03-19T05:06:55.612Z,54.00
2023-03-19T05:09:22.466Z,53.90
2023-03-19T05:11:56.572Z,54.00
2023-03-19T05:14:26.439Z,54.10
2023-03-19T05:16:53.263Z,54.20
2023-03-19T05:19:22.531Z,54.30
2023-03-19T05:21:54.015Z,54.50
2023-03-19T05:24:23.182Z,54.50
2023-03-19T05:26:50.687Z,54.50
2023-03-19T05:29:24.674Z,54.60
2023-03-19T05:31:54.214Z,55.50
2023-03-19T05:34:27.099Z,54.80
2023-03-19T05:36:54.009Z,54.90
2023-03-19T05:39:23.410Z,55.00
2023-03-19T05:41:52.797Z,54.90
2023-03-19T05:44:19.991Z,55.00
2023-03-19T05:46:49.190Z,55.00
2023-03-19T05:49:16.197Z,55.10
2023-03-19T05:51:45.660Z,55.10
2023-03-19T05:54:14.774Z,55.20
2023-03-19T05:56:46.337Z,55.20
2023-03-19T05:59:15.596Z,55.20
2023-03-19T06:01:42.672Z,55.40
2023-03-19T06:04:14.579Z,55.00
2023-03-19T06:06:43.553Z,55.10
2023-03-19T06:09:10.443Z,55.20
2023-03-19T06:11:39.502Z,55.20
2023-03-19T06:14:09.602Z,55.30
2023-03-19T06:16:39.202Z,55.40
2023-03-19T06:19:08.612Z,55.40
2023-03-19T06:21:37.703Z,55.40
2023-03-19T06:24:07.244Z,55.60
2023-03-19T06:26:41.320Z,55.60
2023-03-19T06:29:11.427Z,55.60
2023-03-19T06:31:40.012Z,55.60
2023-03-19T06:34:07.367Z,55.50
2023-03-19T06:36:34.262Z,55.60
2023-03-19T06:39:01.595Z,55.60
2023-03-19T06:41:28.532Z,55.60
2023-03-19T06:43:55.456Z,56.30
2023-03-19T06:46:22.453Z,55.70
2023-03-19T06:48:49.433Z,55.70
2023-03-19T06:51:16.309Z,55.80
2023-03-19T06:53:43.137Z,55.80
2023-03-19T06:56:12.562Z,55.90
2023-03-19T06:58:39.476Z,55.90
2023-03-19T07:01:09.350Z,55.90
2023-03-19T07:03:36.333Z,56.00
2023-03-19T07:06:07.755Z,56.10
2023-03-19T07:08:34.665Z,56.10
2023-03-19T07:11:06.985Z,56.10
2023-03-19T07:13:38.417Z,56.30
2023-03-19T07:16:06.110Z,56.20
2023-03-19T07:18:35.587Z,56.20
2023-03-19T07:21:04.834Z,56.20
2023-03-19T07:23:34.283Z,56.20
2023-03-19T07:26:03.762Z,56.30
2023-03-19T07:28:31.217Z,56.30
2023-03-19T07:31:00.254Z,56.40
2023-03-19T07:33:29.412Z,56.40
2023-03-19T07:35:58.631Z,56.50
2023-03-19T07:38:28.078Z,56.40
2023-03-19T07:41:01.977Z,56.40
2023-03-19T07:43:31.314Z,56.40
2023-03-19T07:46:00.894Z,56.30
2023-03-19T07:48:30.700Z,56.30
2023-03-19T07:50:57.724Z,56.20
2023-03-19T07:53:27.369Z,56.20
2023-03-19T07:55:54.379Z,56.20
2023-03-19T07:58:23.990Z,56.40
2023-03-19T08:00:51.054Z,56.20
2023-03-19T08:03:17.908Z,56.20
2023-03-19T08:05:49.996Z,56.20
2023-03-19T08:08:17.556Z,56.30
2023-03-19T08:10:47.982Z,56.10
2023-03-19T08:13:17.355Z,55.80
2023-03-19T08:15:44.296Z,55.60
2023-03-19T08:18:11.410Z,55.30
2023-03-19T08:20:38.291Z,55.10
2023-03-19T08:23:05.253Z,55.20
2023-03-19T08:25:37.685Z,55.10
2023-03-19T08:28:09.766Z,55.00
2023-03-19T08:30:40.036Z,55.50
2023-03-19T08:33:07.084Z,54.70
2023-03-19T08:35:38.826Z,54.60
2023-03-19T08:38:05.872Z,54.60
2023-03-19T08:40:34.061Z,54.50
2023-03-19T08:43:06.813Z,54.30
2023-03-19T08:45:33.972Z,54.10
2023-03-19T08:48:04.011Z,54.00
2023-03-19T08:50:30.955Z,53.80
2023-03-19T08:53:00.888Z,53.70
2023-03-19T08:55:27.832Z,53.70
2023-03-19T08:57:57.308Z,53.50
2023-03-19T09:00:29.483Z,53.10
2023-03-19T09:02:56.418Z,52.70
2023-03-19T09:05:24.270Z,52.80
2023-03-19T09:07:54.126Z,53.40
2023-03-19T09:10:23.743Z,53.70
2023-03-19T09:12:50.668Z,54.00
2023-03-19T09:15:17.750Z,53.90
2023-03-19T09:17:49.374Z,53.90
2023-03-19T09:20:16.320Z,52.90
2023-03-19T09:22:48.105Z,52.30
2023-03-19T09:25:17.747Z,51.70
2023-03-19T09:27:44.732Z,51.30
2023-03-19T09:30:12.569Z,51.10
2023-03-19T09:32:42.045Z,50.90
2023-03-19T09:35:09.474Z,50.50
2023-03-19T09:37:36.474Z,50.40
2023-03-19T09:40:07.098Z,50.40
2023-03-19T09:42:52.543Z,49.70
2023-03-19T09:45:20.922Z,49.60
2023-03-19T09:47:57.003Z,49.40
2023-03-19T09:50:32.357Z,49.30
2023-03-19T09:53:08.507Z,49.40
2023-03-19T09:55:45.703Z,49.30
2023-03-19T09:58:28.356Z,49.00
2023-03-19T10:00:56.950Z,49.10
2023-03-19T10:04:06.135Z,49.10
2023-03-19T10:06:40.308Z,48.60
2023-03-19T10:09:38.819Z,48.80
2023-03-19T10:12:22.720Z,48.30
2023-03-19T10:15:25.631Z,48.50
2023-03-19T10:18:24.420Z,48.40
2023-03-19T10:21:19.738Z,48.70
2023-03-19T10:24:01.504Z,48.50
2023-03-19T10:26:37.559Z,48.40
2023-03-19T10:29:21.264Z,48.30
2023-03-19T10:31:53.842Z,48.70
2023-03-19T10:34:44.611Z,48.70
2023-03-19T10:37:28.800Z,48.70
2023-03-19T10:40:00.896Z,48.90
2023-03-19T10:42:49.298Z,48.90
2023-03-19T10:45:27.101Z,48.60
2023-03-19T10:47:56.563Z,47.60
2023-03-19T10:50:50.878Z,47.50
2023-03-19T10:53:17.642Z,47.20
2023-03-19T10:56:13.144Z,47.00
2023-03-19T10:59:03.920Z,46.20
2023-03-19T11:01:42.869Z,45.90
2023-03-19T11:04:29.692Z,46.10
2023-03-19T11:07:03.751Z,45.60
2023-03-19T11:09:40.986Z,46.00
2023-03-19T11:12:33.867Z,45.90
2023-03-19T11:15:07.480Z,46.10
2023-03-19T11:17:52.726Z,46.30
2023-03-19T11:20:34.283Z,46.00
2023-03-19T11:23:07.742Z,45.80
2023-03-19T11:25:42.058Z,46.10
2023-03-19T11:28:14.475Z,46.10
2023-03-19T11:30:53.385Z,45.50
2023-03-19T11:33:41.881Z,45.30
2023-03-19T11:36:16.708Z,45.30
2023-03-19T11:39:22.734Z,44.90
2023-03-19T11:42:29.706Z,43.90
2023-03-19T11:45:31.437Z,44.10
2023-03-19T11:49:08.691Z,44.00
2023-03-19T11:51:52.088Z,43.70
2023-03-19T11:54:30.753Z,44.10
2023-03-19T11:57:34.931Z,44.10
2023-03-19T12:00:39.377Z,43.20
2023-03-19T12:03:52.578Z,43.40
2023-03-19T12:06:45.862Z,43.20
2023-03-19T12:09:38.259Z,43.40
2023-03-19T12:12:36.967Z,43.20
2023-03-19T12:15:24.251Z,43.50
2023-03-19T12:17:59.557Z,43.30
2023-03-19T12:20:46.053Z,43.60
2023-03-19T12:23:44.586Z,43.10
2023-03-19T12:26:45.389Z,43.30
2023-03-19T12:29:27.070Z,43.10
2023-03-19T12:32:21.477Z,43.30
2023-03-19T12:34:55.984Z,43.40
2023-03-19T12:37:39.192Z,43.50
2023-03-19T12:40:24.064Z,43.40
2023-03-19T12:42:52.010Z,43.20
2023-03-19T12:45:41.298Z,43.50
2023-03-19T12:48:16.810Z,43.50
2023-03-19T12:50:52.499Z,43.60
2023-03-19T12:53:49.564Z,43.70
2023-03-19T12:56:34.562Z,43.80
2023-03-19T12:59:39.469Z,44.00
2023-03-19T13:02:22.954Z,44.00
2023-03-19T13:05:30.734Z,44.10
2023-03-19T13:08:02.465Z,44.00
2023-03-19T13:10:32.580Z,44.30
2023-03-19T13:13:14.894Z,44.20
2023-03-19T13:15:47.843Z,44.00
2023-03-19T13:18:32.483Z,44.10
2023-03-19T13:21:11.693Z,44.10
2023-03-19T13:23:44.130Z,44.20
2023-03-19T13:26:19.598Z,44.10
2023-03-19T13:29:10.762Z,44.30
2023-03-19T13:31:41.735Z,44.20
2023-03-19T13:34:29.974Z,44.40
2023-03-19T13:37:14.510Z,44.40
2023-03-19T13:39:42.909Z,44.30
2023-03-19T13:42:42.167Z,44.40
2023-03-19T13:45:38.355Z,44.30
2023-03-19T13:48:47.600Z,44.00
2023-03-19T13:51:21.792Z,44.10
2023-03-19T13:53:59.856Z,44.40
2023-03-19T13:56:32.400Z,44.20
2023-03-19T13:59:25.189Z,43.90
2023-03-19T14:01:52.315Z,43.70
2023-03-19T14:04:32.988Z,43.70
2023-03-19T14:07:14.938Z,43.80
2023-03-19T14:09:47.179Z,43.40
2023-03-19T14:12:20.571Z,43.40
2023-03-19T14:14:56.008Z,43.20
2023-03-19T14:17:30.130Z,43.40
2023-03-19T14:20:28.333Z,43.40
2023-03-19T14:23:09.234Z,43.20
2023-03-19T14:26:06.399Z,43.40
2023-03-19T14:28:33.268Z,43.70
2023-03-19T14:31:02.762Z,43.60
2023-03-19T14:33:43.715Z,43.60
2023-03-19T14:36:22.002Z,43.50
2023-03-19T14:39:31.684Z,43.40
2023-03-19T14:42:31.557Z,43.40
2023-03-19T14:45:32.081Z,43.50
2023-03-19T14:48:54.508Z,43.60
2023-03-19T14:52:04.614Z,44.00
2023-03-19T14:54:43.347Z,44.00
2023-03-19T14:57:21.441Z,44.00
2023-03-19T14:59:55.547Z,44.00
2023-03-19T15:02:44.657Z,44.00
2023-03-19T15:05:21.011Z,44.10
2023-03-19T15:07:53.490Z,44.20
2023-03-19T15:10:24.496Z,44.20
2023-03-19T15:13:25.534Z,44.20
2023-03-19T15:16:21.337Z,44.40
2023-03-19T15:18:49.674Z,44.50
2023-03-19T15:21:17.724Z,44.40
2023-03-19T15:23:50.673Z,45.00
2023-03-19T15:26:36.955Z,44.20
2023-03-19T15:29:11.676Z,44.40
2023-03-19T15:31:57.534Z,44.50
2023-03-19T15:34:31.219Z,44.60
2023-03-19T15:37:15.570Z,44.60
2023-03-19T15:39:50.372Z,44.70
2023-03-19T15:42:19.835Z,44.60
2023-03-19T15:45:17.471Z,44.60
2023-03-19T15:48:06.173Z,44.30
2023-03-19T15:50:42.403Z,44.30
2023-03-19T15:53:18.434Z,44.70
2023-03-19T15:55:48.602Z,44.60
2023-03-19T15:58:21.866Z,44.70
2023-03-19T16:00:49.338Z,44.80
2023-03-19T16:03:28.360Z,44.80
2023-03-19T16:06:06.973Z,44.70
2023-03-19T16:08:34.239Z,44.80
2023-03-19T16:11:40.531Z,44.90
2023-03-19T16:14:17.169Z,45.10
2023-03-19T16:16:48.459Z,45.10
2023-03-19T16:19:36.708Z,45.50
2023-03-19T16:22:24.815Z,45.00
2023-03-19T16:24:56.887Z,45.00
2023-03-19T16:27:38.273Z,45.00
2023-03-19T16:30:23.915Z,45.00
2023-03-19T16:32:59.604Z,45.20
2023-03-19T16:35:30.281Z,45.20
2023-03-19T16:38:28.292Z,45.20
2023-03-19T16:41:24.302Z,45.30
2023-03-19T16:43:54.331Z,45.40
2023-03-19T16:46:23.990Z,45.40
2023-03-19T16:48:53.884Z,45.50
2023-03-19T16:51:25.398Z,45.60
2023-03-19T16:53:52.430Z,45.70
2023-03-19T16:56:19.918Z,45.80
2023-03-19T16:58:49.657Z,45.80
2023-03-19T17:01:23.067Z,45.70
2023-03-19T17:03:54.028Z,45.70
2023-03-19T17:06:25.161Z,45.80
2023-03-19T17:08:52.157Z,45.80
2023-03-19T17:11:31.208Z,46.10
2023-03-19T17:14:01.880Z,46.40
2023-03-19T17:16:31.587Z,46.60
2023-03-19T17:18:59.721Z,47.00
2023-03-19T17:21:31.269Z,47.10
2023-03-19T17:24:21.667Z,47.40
2023-03-19T17:26:48.977Z,47.70
2023-03-19T17:29:20.175Z,47.90
2023-03-19T17:31:48.114Z,48.10
2023-03-19T17:34:27.111Z,48.30
2023-03-19T17:37:04.119Z,49.00
2023-03-19T17:39:34.137Z,48.90
2023-03-19T17:42:00.979Z,49.20
2023-03-19T17:44:30.546Z,49.20
2023-03-19T17:46:57.580Z,49.60
2023-03-19T17:49:32.410Z,49.80
2023-03-19T17:52:00.113Z,50.10
2023-03-19T17:54:29.383Z,50.20
2023-03-19T17:56:58.669Z,50.40
2023-03-19T17:59:32.608Z,50.60
2023-03-19T18:02:01.850Z,51.00
2023-03-19T18:04:31.356Z,51.10
2023-03-19T18:06:58.292Z,51.50
2023-03-19T18:09:32.766Z,51.40
2023-03-19T18:12:02.050Z,51.70
2023-03-19T18:14:31.224Z,51.90
2023-03-19T18:17:00.609Z,52.10
2023-03-19T18:19:29.802Z,52.30
2023-03-19T18:21:56.737Z,52.50
2023-03-19T18:24:26.117Z,52.60
2023-03-19T18:26:55.637Z,52.80
2023-03-19T18:29:24.917Z,52.90
2023-03-19T18:31:53.701Z,53.00
2023-03-19T18:34:20.903Z,53.00
2023-03-19T18:36:51.016Z,53.10
2023-03-19T18:39:22.598Z,53.40
2023-03-19T18:41:49.649Z,53.40
2023-03-19T18:44:18.605Z,53.60
2023-03-19T18:46:45.651Z,53.80
2023-03-19T18:49:21.668Z,53.30
2023-03-19T18:52:02.304Z,53.60
2023-03-19T18:54:33.226Z,53.70
2023-03-19T18:57:04.131Z,53.70
2023-03-19T18:59:33.499Z,53.80
2023-03-19T19:02:17.609Z,53.90
2023-03-19T19:04:44.527Z,54.00
2023-03-19T19:07:17.358Z,53.90
2023-03-19T19:09:49.807Z,54.10
2023-03-19T19:12:18.696Z,54.00
2023-03-19T19:14:46.266Z,54.60
2023-03-19T19:17:23.262Z,54.10
2023-03-19T19:19:52.322Z,54.20
2023-03-19T19:22:20.301Z,54.10
2023-03-19T19:24:47.513Z,54.20
2023-03-19T19:27:27.052Z,54.30
2023-03-19T19:29:57.393Z,54.60
2023-03-19T19:32:30.839Z,54.50
2023-03-19T19:34:57.749Z,54.60
2023-03-19T19:37:29.347Z,54.70
2023-03-19T19:39:56.480Z,54.80
2023-03-19T19:42:23.931Z,55.10
2023-03-19T19:44:58.987Z,54.70
2023-03-19T19:47:27.075Z,55.00
2023-03-19T19:49:53.923Z,54.90
2023-03-19T19:52:21.147Z,55.00
2023-03-19T19:54:51.886Z,55.00
2023-03-19T19:57:24.446Z,55.10
2023-03-19T19:59:55.577Z,55.00
2023-03-19T20:02:28.920Z,55.00
2023-03-19T20:04:57.818Z,55.00
2023-03-19T20:07:24.820Z,55.00
2023-03-19T20:09:51.814Z,55.00
2023-03-19T20:12:26.634Z,55.00
2023-03-19T20:14:53.973Z,55.00
2023-03-19T20:17:21.216Z,55.10
2023-03-19T20:19:48.690Z,55.10
2023-03-19T20:22:16.387Z,55.10
2023-03-19T20:24:43.448Z,55.10
2023-03-19T20:27:22.609Z,55.10
2023-03-19T20:29:50.719Z,55.40
2023-03-19T20:32:37.800Z,55.20
2023-03-19T20:35:15.690Z,55.40
2023-03-19T20:37:42.678Z,55.30
2023-03-19T20:40:11.812Z,55.40
2023-03-19T20:42:39.690Z,55.50
2023-03-19T20:45:09.873Z,55.60
2023-03-19T20:47:37.188Z,55.60
2023-03-19T20:50:04.683Z,55.60
2023-03-19T20:52:33.878Z,55.60
2023-03-19T20:55:03.976Z,55.60
2023-03-19T20:57:33.650Z,55.60
2023-03-19T21:00:17.292Z,55.60
2023-03-19T21:02:44.167Z,55.60
2023-03-19T21:05:16.198Z,55.40
2023-03-19T21:07:46.827Z,55.40
2023-03-19T21:10:32.101Z,55.30
2023-03-19T21:13:01.787Z,55.60
2023-03-19T21:15:29.650Z,55.40
2023-03-19T21:17:57.398Z,55.30
2023-03-19T21:20:31.394Z,55.20
2023-03-19T21:23:28.159Z,55.20
2023-03-19T21:26:01.321Z,55.20
2023-03-19T21:28:36.563Z,55.10
2023-03-19T21:31:03.718Z,55.40
2023-03-19T21:33:35.546Z,55.30
2023-03-19T21:36:06.669Z,55.40
2023-03-19T21:38:33.719Z,55.30
2023-03-19T21:41:05.078Z,55.40
2023-03-19T21:43:41.529Z,55.30
2023-03-19T21:46:24.067Z,55.30
2023-03-19T21:48:55.188Z,55.30
2023-03-19T21:51:23.614Z,55.30
2023-03-19T21:53:53.107Z,55.30
2023-03-19T21:56:35.500Z,55.30
2023-03-19T21:59:19.608Z,55.40
2023-03-19T22:01:46.727Z,55.40
2023-03-19T22:04:13.885Z,55.40
2023-03-19T22:06:43.456Z,55.40
2023-03-19T22:09:10.619Z,55.40
2023-03-19T22:11:39.984Z,55.60
2023-03-19T22:14:30.132Z,55.70
2023-03-19T22:16:57.835Z,56.10
2023-03-19T22:19:30.315Z,56.10
2023-03-19T22:21:57.229Z,56.30
2023-03-19T22:24:24.115Z,56.40
2023-03-19T22:26:57.019Z,56.50
2023-03-19T22:29:29.077Z,56.70
2023-03-19T22:32:01.011Z,56.70
2023-03-19T22:34:28.486Z,56.80
2023-03-19T22:37:00.775Z,56.80
2023-03-19T22:39:27.625Z,56.80
2023-03-19T22:41:57.006Z,56.90
2023-03-19T22:44:31.296Z,57.00
2023-03-19T22:47:02.341Z,57.20
2023-03-19T22:49:32.195Z,57.80
2023-03-19T22:51:59.191Z,57.10
2023-03-19T22:54:28.839Z,57.20
2023-03-19T22:56:55.702Z,57.20
2023-03-19T22:59:25.446Z,57.20
2023-03-19T23:01:54.828Z,57.30
2023-03-19T23:04:25.402Z,57.20
2023-03-19T23:06:56.646Z,57.20
2023-03-19T23:09:26.080Z,57.20
2023-03-19T23:11:53.783Z,57.20
2023-03-19T23:14:29.501Z,57.20
2023-03-19T23:17:06.757Z,57.10
2023-03-19T23:19:36.930Z,57.10
2023-03-19T23:22:06.643Z,57.10
2023-03-19T23:24:35.218Z,57.10
2023-03-19T23:27:03.478Z,57.10
2023-03-19T23:29:34.927Z,57.20
2023-03-19T23:32:04.961Z,57.20
2023-03-19T23:34:35.310Z,57.20
2023-03-19T23:37:09.248Z,57.20
2023-03-19T23:39:36.964Z,57.20
2023-03-19T23:42:04.921Z,57.20
2023-03-19T23:44:36.931Z,57.20
2023-03-19T23:47:03.868Z,57.30
2023-03-19T23:49:32.963Z,57.20
2023-03-19T23:52:01.887Z,57.30
2023-03-19T23:54:37.766Z,57.20
2023-03-19T23:57:10.626Z,57.30
2023-03-19T23:59:40.450Z,57.20
